sensor_id;sensor_type;location;lat;lon;timestamp;P1;durP1;ratioP1;P2;durP2;ratioP2
35245;SDS011;21379;50.962;6.960;2023-05-14T00:02:05;11.63;;;6.30;;
35245;SDS011;21379;50.962;6.960;2023-05-14T00:04:32;11.85;;;6.93;;
35245;SDS011;21379;50.962;6.960;2023-05-14T00:06:58;13.23;;;6.30;;
35245;SDS011;21379;50.962;6.960;2023-05-14T00:09:25;10.02;;;5.93;;
35245;SDS011;21379;50.962;6.960;2023-05-14T00:11:54;7.97;;;5.53;;
35245;SDS011;21379;50.962;6.960;2023-05-14T00:14:21;11.70;;;6.75;;
35245;SDS011;21379;50.962;6.960;2023-05-14T00:16:49;17.10;;;6.80;;
35245;SDS011;21379;50.962;6.960;2023-05-14T00:19:16;11.60;;;6.72;;
35245;SDS011;21379;50.962;6.960;2023-05-14T00:21:43;9.88;;;5.78;;
35245;SDS011;21379;50.962;6.960;2023-05-14T00:24:10;13.18;;;6.25;;
35245;SDS011;21379;50.962;6.960;2023-05-14T00:26:37;13.50;;;6.80;;
35245;SDS011;21379;50.962;6.960;2023-05-14T00:29:03;12.35;;;6.35;;
35245;SDS011;21379;50.962;6.960;2023-05-14T00:31:30;8.82;;;5.43;;
35245;SDS011;21379;50.962;6.960;2023-05-14T00:33:59;8.50;;;5.93;;
35245;SDS011;21379;50.962;6.960;2023-05-14T00:36:25;11.18;;;7.05;;
35245;SDS011;21379;50.962;6.960;2023-05-14T00:38:52;13.10;;;6.68;;
35245;SDS011;21379;50.962;6.960;2023-05-14T00:41:20;10.93;;;6.75;;
35245;SDS011;21379;50.962;6.960;2023-05-14T00:43:47;10.55;;;5.80;;
35245;SDS011;21379;50.962;6.960;2023-05-14T00:46:14;12.85;;;6.22;;
35245;SDS011;21379;50.962;6.960;2023-05-14T00:48:42;10.23;;;6.22;;
35245;SDS011;21379;50.962;6.960;2023-05-14T00:51:11;11.93;;;6.40;;
35245;SDS011;21379;50.962;6.960;2023-05-14T00:53:38;11.57;;;6.40;;
35245;SDS011;21379;50.962;6.960;2023-05-14T00:56:05;14.13;;;6.80;;
35245;SDS011;21379;50.962;6.960;2023-05-14T00:58:33;12.30;;;6.30;;
35245;SDS011;21379;50.962;6.960;2023-05-14T01:00:59;17.65;;;6.03;;
35245;SDS011;21379;50.962;6.960;2023-05-14T01:03:27;12.77;;;5.90;;
35245;SDS011;21379;50.962;6.960;2023-05-14T01:05:56;19.30;;;6.80;;
35245;SDS011;21379;50.962;6.960;2023-05-14T01:08:31;21.65;;;6.70;;
35245;SDS011;21379;50.962;6.960;2023-05-14T01:11:05;8.32;;;5.25;;
35245;SDS011;21379;50.962;6.960;2023-05-14T01:13:39;10.88;;;5.95;;
35245;SDS011;21379;50.962;6.960;2023-05-14T01:16:13;11.63;;;5.93;;
35245;SDS011;21379;50.962;6.960;2023-05-14T01:18:44;14.38;;;7.53;;
35245;SDS011;21379;50.962;6.960;2023-05-14T01:21:35;20.02;;;6.45;;
35245;SDS011;21379;50.962;6.960;2023-05-14T01:24:03;11.48;;;6.25;;
35245;SDS011;21379;50.962;6.960;2023-05-14T01:26:30;16.02;;;6.50;;
35245;SDS011;21379;50.962;6.960;2023-05-14T01:28:59;14.48;;;6.35;;
35245;SDS011;21379;50.962;6.960;2023-05-14T01:31:29;10.43;;;6.40;;
35245;SDS011;21379;50.962;6.960;2023-05-14T01:33:58;13.18;;;6.63;;
35245;SDS011;21379;50.962;6.960;2023-05-14T01:36:26;10.98;;;5.80;;
35245;SDS011;21379;50.962;6.960;2023-05-14T01:38:56;13.00;;;6.35;;
35245;SDS011;21379;50.962;6.960;2023-05-14T01:41:25;10.07;;;4.63;;
35245;SDS011;21379;50.962;6.960;2023-05-14T01:43:52;14.20;;;6.75;;
35245;SDS011;21379;50.962;6.960;2023-05-14T01:46:19;12.32;;;6.40;;
35245;SDS011;21379;50.962;6.960;2023-05-14T01:48:48;14.35;;;5.97;;
35245;SDS011;21379;50.962;6.960;2023-05-14T01:51:15;14.25;;;6.88;;
35245;SDS011;21379;50.962;6.960;2023-05-14T01:53:42;10.73;;;6.03;;
35245;SDS011;21379;50.962;6.960;2023-05-14T01:56:10;11.68;;;6.30;;
35245;SDS011;21379;50.962;6.960;2023-05-14T01:58:37;12.20;;;6.57;;
35245;SDS011;21379;50.962;6.960;2023-05-14T02:01:04;12.40;;;5.93;;
35245;SDS011;21379;50.962;6.960;2023-05-14T02:03:31;10.55;;;6.28;;
35245;SDS011;21379;50.962;6.960;2023-05-14T02:05:58;10.38;;;5.38;;
35245;SDS011;21379;50.962;6.960;2023-05-14T02:08:26;13.80;;;5.72;;
35245;SDS011;21379;50.962;6.960;2023-05-14T02:10:53;12.45;;;6.20;;
35245;SDS011;21379;50.962;6.960;2023-05-14T02:13:24;13.80;;;5.78;;
35245;SDS011;21379;50.962;6.960;2023-05-14T02:15:51;8.40;;;5.57;;
35245;SDS011;21379;50.962;6.960;2023-05-14T02:18:18;10.98;;;5.78;;
35245;SDS011;21379;50.962;6.960;2023-05-14T02:20:45;14.65;;;5.72;;
35245;SDS011;21379;50.962;6.960;2023-05-14T02:23:12;14.02;;;6.45;;
35245;SDS011;21379;50.962;6.960;2023-05-14T02:25:39;14.75;;;6.60;;
35245;SDS011;21379;50.962;6.960;2023-05-14T02:28:06;10.70;;;6.97;;
35245;SDS011;21379;50.962;6.960;2023-05-14T02:30:34;12.23;;;7.07;;
35245;SDS011;21379;50.962;6.960;2023-05-14T02:33:01;10.68;;;6.18;;
35245;SDS011;21379;50.962;6.960;2023-05-14T02:35:28;9.95;;;5.70;;
35245;SDS011;21379;50.962;6.960;2023-05-14T02:37:55;11.40;;;6.13;;
35245;SDS011;21379;50.962;6.960;2023-05-14T02:40:23;8.30;;;5.63;;
35245;SDS011;21379;50.962;6.960;2023-05-14T02:42:50;8.98;;;5.70;;
35245;SDS011;21379;50.962;6.960;2023-05-14T02:45:18;10.90;;;5.65;;
35245;SDS011;21379;50.962;6.960;2023-05-14T02:47:47;14.32;;;5.50;;
35245;SDS011;21379;50.962;6.960;2023-05-14T02:50:14;10.50;;;5.68;;
35245;SDS011;21379;50.962;6.960;2023-05-14T02:52:41;8.82;;;5.60;;
35245;SDS011;21379;50.962;6.960;2023-05-14T02:55:08;8.73;;;5.75;;
35245;SDS011;21379;50.962;6.960;2023-05-14T02:57:35;11.68;;;5.97;;
35245;SDS011;21379;50.962;6.960;2023-05-14T03:00:02;8.32;;;4.90;;
35245;SDS011;21379;50.962;6.960;2023-05-14T03:02:30;10.70;;;5.68;;
35245;SDS011;21379;50.962;6.960;2023-05-14T03:04:59;13.65;;;5.25;;
35245;SDS011;21379;50.962;6.960;2023-05-14T03:07:25;9.95;;;5.30;;
35245;SDS011;21379;50.962;6.960;2023-05-14T03:09:52;8.95;;;5.50;;
35245;SDS011;21379;50.962;6.960;2023-05-14T03:12:19;9.23;;;5.22;;
35245;SDS011;21379;50.962;6.960;2023-05-14T03:14:46;17.67;;;5.97;;
35245;SDS011;21379;50.962;6.960;2023-05-14T03:17:13;10.38;;;5.13;;
35245;SDS011;21379;50.962;6.960;2023-05-14T03:19:40;11.93;;;5.65;;
35245;SDS011;21379;50.962;6.960;2023-05-14T03:22:08;6.15;;;4.45;;
35245;SDS011;21379;50.962;6.960;2023-05-14T03:24:36;10.93;;;5.57;;
35245;SDS011;21379;50.962;6.960;2023-05-14T03:27:04;9.43;;;5.15;;
35245;SDS011;21379;50.962;6.960;2023-05-14T03:29:31;8.80;;;5.25;;
35245;SDS011;21379;50.962;6.960;2023-05-14T03:31:58;7.93;;;4.70;;
35245;SDS011;21379;50.962;6.960;2023-05-14T03:34:25;9.18;;;5.03;;
35245;SDS011;21379;50.962;6.960;2023-05-14T03:36:52;9.80;;;4.45;;
35245;SDS011;21379;50.962;6.960;2023-05-14T03:39:21;7.10;;;4.93;;
35245;SDS011;21379;50.962;6.960;2023-05-14T03:41:47;7.78;;;4.07;;
35245;SDS011;21379;50.962;6.960;2023-05-14T03:44:14;8.00;;;4.50;;
35245;SDS011;21379;50.962;6.960;2023-05-14T03:46:41;9.32;;;5.65;;
35245;SDS011;21379;50.962;6.960;2023-05-14T03:49:08;10.70;;;5.13;;
35245;SDS011;21379;50.962;6.960;2023-05-14T03:51:35;12.80;;;6.50;;
35245;SDS011;21379;50.962;6.960;2023-05-14T03:54:04;10.15;;;4.85;;
35245;SDS011;21379;50.962;6.960;2023-05-14T03:56:32;6.28;;;4.78;;
35245;SDS011;21379;50.962;6.960;2023-05-14T03:58:59;7.85;;;5.10;;
35245;SDS011;21379;50.962;6.960;2023-05-14T04:01:26;10.68;;;5.35;;
35245;SDS011;21379;50.962;6.960;2023-05-14T04:03:53;9.82;;;5.97;;
35245;SDS011;21379;50.962;6.960;2023-05-14T04:06:20;11.57;;;5.82;;
35245;SDS011;21379;50.962;6.960;2023-05-14T04:08:47;8.57;;;4.50;;
35245;SDS011;21379;50.962;6.960;2023-05-14T04:11:14;9.90;;;5.43;;
35245;SDS011;21379;50.962;6.960;2023-05-14T04:13:42;5.68;;;4.35;;
35245;SDS011;21379;50.962;6.960;2023-05-14T04:16:09;8.43;;;5.00;;
35245;SDS011;21379;50.962;6.960;2023-05-14T04:18:36;6.25;;;4.00;;
35245;SDS011;21379;50.962;6.960;2023-05-14T04:21:03;8.27;;;5.10;;
35245;SDS011;21379;50.962;6.960;2023-05-14T04:23:30;9.85;;;5.40;;
35245;SDS011;21379;50.962;6.960;2023-05-14T04:26:00;8.40;;;4.40;;
35245;SDS011;21379;50.962;6.960;2023-05-14T04:28:27;8.73;;;5.47;;
35245;SDS011;21379;50.962;6.960;2023-05-14T04:30:55;23.35;;;5.55;;
35245;SDS011;21379;50.962;6.960;2023-05-14T04:33:22;8.00;;;4.90;;
35245;SDS011;21379;50.962;6.960;2023-05-14T04:35:50;8.95;;;5.40;;
35245;SDS011;21379;50.962;6.960;2023-05-14T04:38:17;9.60;;;5.47;;
35245;SDS011;21379;50.962;6.960;2023-05-14T04:40:44;10.25;;;5.53;;
35245;SDS011;21379;50.962;6.960;2023-05-14T04:43:11;7.15;;;4.70;;
35245;SDS011;21379;50.962;6.960;2023-05-14T04:45:38;7.47;;;4.97;;
35245;SDS011;21379;50.962;6.960;2023-05-14T04:48:07;8.65;;;4.82;;
35245;SDS011;21379;50.962;6.960;2023-05-14T04:50:34;12.55;;;5.28;;
35245;SDS011;21379;50.962;6.960;2023-05-14T04:53:01;9.75;;;4.95;;
35245;SDS011;21379;50.962;6.960;2023-05-14T04:55:28;15.75;;;6.30;;
35245;SDS011;21379;50.962;6.960;2023-05-14T04:57:55;6.85;;;4.68;;
35245;SDS011;21379;50.962;6.960;2023-05-14T05:00:22;10.23;;;5.32;;
35245;SDS011;21379;50.962;6.960;2023-05-14T05:02:49;10.95;;;5.50;;
35245;SDS011;21379;50.962;6.960;2023-05-14T05:05:17;10.98;;;6.18;;
35245;SDS011;21379;50.962;6.960;2023-05-14T05:07:44;11.38;;;6.55;;
35245;SDS011;21379;50.962;6.960;2023-05-14T05:10:11;17.02;;;5.88;;
35245;SDS011;21379;50.962;6.960;2023-05-14T05:12:38;13.07;;;6.53;;
35245;SDS011;21379;50.962;6.960;2023-05-14T05:15:05;12.15;;;7.28;;
35245;SDS011;21379;50.962;6.960;2023-05-14T05:17:33;9.27;;;5.45;;
35245;SDS011;21379;50.962;6.960;2023-05-14T05:20:01;9.57;;;6.13;;
35245;SDS011;21379;50.962;6.960;2023-05-14T05:22:30;8.48;;;4.75;;
35245;SDS011;21379;50.962;6.960;2023-05-14T05:24:57;11.27;;;5.65;;
35245;SDS011;21379;50.962;6.960;2023-05-14T05:27:24;12.82;;;6.18;;
35245;SDS011;21379;50.962;6.960;2023-05-14T05:29:51;12.30;;;6.32;;
35245;SDS011;21379;50.962;6.960;2023-05-14T05:32:17;11.43;;;6.35;;
35245;SDS011;21379;50.962;6.960;2023-05-14T05:34:44;13.45;;;7.07;;
35245;SDS011;21379;50.962;6.960;2023-05-14T05:37:11;12.60;;;6.60;;
35245;SDS011;21379;50.962;6.960;2023-05-14T05:39:40;11.32;;;6.53;;
35245;SDS011;21379;50.962;6.960;2023-05-14T05:42:07;13.73;;;5.95;;
35245;SDS011;21379;50.962;6.960;2023-05-14T05:44:34;9.88;;;6.47;;
35245;SDS011;21379;50.962;6.960;2023-05-14T05:47:01;11.98;;;6.60;;
35245;SDS011;21379;50.962;6.960;2023-05-14T05:49:28;12.70;;;6.25;;
35245;SDS011;21379;50.962;6.960;2023-05-14T05:51:55;11.73;;;7.13;;
35245;SDS011;21379;50.962;6.960;2023-05-14T05:54:22;13.07;;;7.07;;
35245;SDS011;21379;50.962;6.960;2023-05-14T05:56:51;11.63;;;7.30;;
35245;SDS011;21379;50.962;6.960;2023-05-14T05:59:18;13.13;;;7.50;;
35245;SDS011;21379;50.962;6.960;2023-05-14T06:01:45;14.10;;;7.55;;
35245;SDS011;21379;50.962;6.960;2023-05-14T06:04:12;16.40;;;7.72;;
35245;SDS011;21379;50.962;6.960;2023-05-14T06:06:39;15.43;;;8.30;;
35245;SDS011;21379;50.962;6.960;2023-05-14T06:09:06;13.77;;;8.57;;
35245;SDS011;21379;50.962;6.960;2023-05-14T06:11:33;11.50;;;8.02;;
35245;SDS011;21379;50.962;6.960;2023-05-14T06:14:01;14.70;;;8.95;;
35245;SDS011;21379;50.962;6.960;2023-05-14T06:16:28;15.93;;;9.43;;
35245;SDS011;21379;50.962;6.960;2023-05-14T06:18:55;12.27;;;7.82;;
35245;SDS011;21379;50.962;6.960;2023-05-14T06:21:22;13.82;;;7.47;;
35245;SDS011;21379;50.962;6.960;2023-05-14T06:23:49;13.70;;;7.65;;
35245;SDS011;21379;50.962;6.960;2023-05-14T06:26:16;10.77;;;6.72;;
35245;SDS011;21379;50.962;6.960;2023-05-14T06:28:43;11.73;;;6.75;;
35245;SDS011;21379;50.962;6.960;2023-05-14T06:31:11;11.82;;;8.02;;
35245;SDS011;21379;50.962;6.960;2023-05-14T06:33:38;11.93;;;6.70;;
35245;SDS011;21379;50.962;6.960;2023-05-14T06:36:06;12.63;;;7.80;;
35245;SDS011;21379;50.962;6.960;2023-05-14T06:38:33;12.52;;;8.00;;
35245;SDS011;21379;50.962;6.960;2023-05-14T06:41:00;11.60;;;7.13;;
35245;SDS011;21379;50.962;6.960;2023-05-14T06:43:27;12.38;;;6.43;;
35245;SDS011;21379;50.962;6.960;2023-05-14T06:45:54;13.93;;;7.22;;
35245;SDS011;21379;50.962;6.960;2023-05-14T06:48:22;18.88;;;8.23;;
35245;SDS011;21379;50.962;6.960;2023-05-14T06:50:51;19.92;;;7.80;;
35245;SDS011;21379;50.962;6.960;2023-05-14T06:53:18;12.18;;;7.03;;
35245;SDS011;21379;50.962;6.960;2023-05-14T06:55:46;12.60;;;7.57;;
35245;SDS011;21379;50.962;6.960;2023-05-14T06:58:13;12.65;;;8.25;;
35245;SDS011;21379;50.962;6.960;2023-05-14T07:00:40;10.48;;;7.07;;
35245;SDS011;21379;50.962;6.960;2023-05-14T07:03:07;12.23;;;6.78;;
35245;SDS011;21379;50.962;6.960;2023-05-14T07:05:35;12.05;;;6.68;;
35245;SDS011;21379;50.962;6.960;2023-05-14T07:08:04;10.10;;;6.75;;
35245;SDS011;21379;50.962;6.960;2023-05-14T07:10:31;11.60;;;7.43;;
35245;SDS011;21379;50.962;6.960;2023-05-14T07:12:58;11.57;;;6.85;;
35245;SDS011;21379;50.962;6.960;2023-05-14T07:15:25;10.25;;;6.88;;
35245;SDS011;21379;50.962;6.960;2023-05-14T07:17:52;11.63;;;7.28;;
35245;SDS011;21379;50.962;6.960;2023-05-14T07:20:19;13.07;;;6.38;;
35245;SDS011;21379;50.962;6.960;2023-05-14T07:22:49;11.52;;;6.80;;
35245;SDS011;21379;50.962;6.960;2023-05-14T07:25:17;11.18;;;6.47;;
35245;SDS011;21379;50.962;6.960;2023-05-14T07:27:44;13.18;;;6.13;;
35245;SDS011;21379;50.962;6.960;2023-05-14T07:30:11;10.13;;;6.32;;
35245;SDS011;21379;50.962;6.960;2023-05-14T07:32:38;7.80;;;5.75;;
35245;SDS011;21379;50.962;6.960;2023-05-14T07:35:05;8.70;;;5.05;;
35245;SDS011;21379;50.962;6.960;2023-05-14T07:37:33;13.65;;;4.88;;
35245;SDS011;21379;50.962;6.960;2023-05-14T07:40:01;8.35;;;4.35;;
35245;SDS011;21379;50.962;6.960;2023-05-14T07:42:28;6.95;;;4.53;;
35245;SDS011;21379;50.962;6.960;2023-05-14T07:44:55;5.57;;;4.15;;
35245;SDS011;21379;50.962;6.960;2023-05-14T07:47:22;6.10;;;3.95;;
35245;SDS011;21379;50.962;6.960;2023-05-14T07:49:52;4.43;;;3.90;;
35245;SDS011;21379;50.962;6.960;2023-05-14T07:52:19;6.13;;;4.15;;
35245;SDS011;21379;50.962;6.960;2023-05-14T07:54:46;4.82;;;3.50;;
35245;SDS011;21379;50.962;6.960;2023-05-14T07:57:14;7.28;;;3.30;;
35245;SDS011;21379;50.962;6.960;2023-05-14T07:59:41;3.88;;;2.53;;
35245;SDS011;21379;50.962;6.960;2023-05-14T08:02:08;6.82;;;3.03;;
35245;SDS011;21379;50.962;6.960;2023-05-14T08:04:36;10.40;;;2.88;;
35245;SDS011;21379;50.962;6.960;2023-05-14T08:07:03;3.78;;;2.72;;
35245;SDS011;21379;50.962;6.960;2023-05-14T08:09:31;4.80;;;2.45;;
35245;SDS011;21379;50.962;6.960;2023-05-14T08:11:58;4.70;;;2.90;;
35245;SDS011;21379;50.962;6.960;2023-05-14T08:14:26;4.65;;;2.85;;
35245;SDS011;21379;50.962;6.960;2023-05-14T08:16:53;8.30;;;3.40;;
35245;SDS011;21379;50.962;6.960;2023-05-14T08:19:20;8.95;;;3.55;;
35245;SDS011;21379;50.962;6.960;2023-05-14T08:21:48;6.13;;;3.60;;
35245;SDS011;21379;50.962;6.960;2023-05-14T08:24:15;6.70;;;3.55;;
35245;SDS011;21379;50.962;6.960;2023-05-14T08:26:43;4.25;;;2.85;;
35245;SDS011;21379;50.962;6.960;2023-05-14T08:29:10;4.72;;;2.72;;
35245;SDS011;21379;50.962;6.960;2023-05-14T08:31:39;4.47;;;2.70;;
35245;SDS011;21379;50.962;6.960;2023-05-14T08:34:05;3.33;;;3.03;;
35245;SDS011;21379;50.962;6.960;2023-05-14T08:36:32;2.92;;;2.22;;
35245;SDS011;21379;50.962;6.960;2023-05-14T08:38:59;3.30;;;2.28;;
35245;SDS011;21379;50.962;6.960;2023-05-14T08:41:26;2.67;;;2.03;;
35245;SDS011;21379;50.962;6.960;2023-05-14T08:43:55;2.45;;;2.17;;
35245;SDS011;21379;50.962;6.960;2023-05-14T08:46:26;2.63;;;2.00;;
35245;SDS011;21379;50.962;6.960;2023-05-14T08:48:59;3.30;;;2.25;;
35245;SDS011;21379;50.962;6.960;2023-05-14T08:51:33;3.40;;;2.08;;
35245;SDS011;21379;50.962;6.960;2023-05-14T08:54:01;2.75;;;1.92;;
35245;SDS011;21379;50.962;6.960;2023-05-14T08:56:29;3.10;;;1.75;;
35245;SDS011;21379;50.962;6.960;2023-05-14T08:58:57;1.75;;;1.42;;
35245;SDS011;21379;50.962;6.960;2023-05-14T09:01:25;2.63;;;1.50;;
35245;SDS011;21379;50.962;6.960;2023-05-14T09:03:52;1.83;;;1.40;;
35245;SDS011;21379;50.962;6.960;2023-05-14T09:06:21;3.22;;;1.67;;
35245;SDS011;21379;50.962;6.960;2023-05-14T09:08:49;1.95;;;1.63;;
35245;SDS011;21379;50.962;6.960;2023-05-14T14:20:36;2.20;;;1.38;;
35245;SDS011;21379;50.962;6.960;2023-05-14T14:23:03;1.42;;;1.10;;
35245;SDS011;21379;50.962;6.960;2023-05-14T14:25:30;2.65;;;1.15;;
35245;SDS011;21379;50.962;6.960;2023-05-14T14:27:57;1.95;;;1.23;;
35245;SDS011;21379;50.962;6.960;2023-05-14T14:30:24;1.83;;;1.20;;
35245;SDS011;21379;50.962;6.960;2023-05-14T14:32:51;2.03;;;1.27;;
35245;SDS011;21379;50.962;6.960;2023-05-14T14:35:18;2.35;;;1.73;;
35245;SDS011;21379;50.962;6.960;2023-05-14T14:37:46;1.52;;;1.20;;
35245;SDS011;21379;50.962;6.960;2023-05-14T14:40:15;2.65;;;1.80;;
35245;SDS011;21379;50.962;6.960;2023-05-14T14:42:42;2.85;;;1.60;;
35245;SDS011;21379;50.962;6.960;2023-05-14T14:45:10;3.97;;;1.70;;
35245;SDS011;21379;50.962;6.960;2023-05-14T14:47:37;1.60;;;1.08;;
35245;SDS011;21379;50.962;6.960;2023-05-14T14:50:08;1.70;;;1.30;;
35245;SDS011;21379;50.962;6.960;2023-05-14T14:52:35;3.83;;;1.65;;
35245;SDS011;21379;50.962;6.960;2023-05-14T14:55:04;3.97;;;1.00;;
35245;SDS011;21379;50.962;6.960;2023-05-14T14:57:31;1.77;;;1.10;;
35245;SDS011;21379;50.962;6.960;2023-05-14T14:59:58;6.30;;;1.50;;
35245;SDS011;21379;50.962;6.960;2023-05-14T15:02:25;2.28;;;1.30;;
35245;SDS011;21379;50.962;6.960;2023-05-14T15:04:52;1.42;;;1.20;;
35245;SDS011;21379;50.962;6.960;2023-05-14T15:07:19;3.92;;;1.52;;
35245;SDS011;21379;50.962;6.960;2023-05-14T15:09:46;1.13;;;1.02;;
35245;SDS011;21379;50.962;6.960;2023-05-14T15:12:15;1.75;;;1.27;;
35245;SDS011;21379;50.962;6.960;2023-05-14T15:14:42;2.42;;;1.20;;
35245;SDS011;21379;50.962;6.960;2023-05-14T15:17:09;1.77;;;1.33;;
35245;SDS011;21379;50.962;6.960;2023-05-14T15:19:35;2.45;;;1.17;;
35245;SDS011;21379;50.962;6.960;2023-05-14T15:22:02;6.85;;;1.33;;
35245;SDS011;21379;50.962;6.960;2023-05-14T15:24:30;3.97;;;1.58;;
35245;SDS011;21379;50.962;6.960;2023-05-14T15:26:56;1.52;;;1.13;;
35245;SDS011;21379;50.962;6.960;2023-05-14T15:29:25;1.42;;;1.13;;
35245;SDS011;21379;50.962;6.960;2023-05-14T15:31:52;1.38;;;1.27;;
35245;SDS011;21379;50.962;6.960;2023-05-14T15:34:20;2.75;;;1.25;;
35245;SDS011;21379;50.962;6.960;2023-05-14T15:36:47;1.77;;;1.20;;
35245;SDS011;21379;50.962;6.960;2023-05-14T15:39:13;3.53;;;1.30;;
35245;SDS011;21379;50.962;6.960;2023-05-14T15:41:41;1.63;;;1.23;;
35245;SDS011;21379;50.962;6.960;2023-05-14T15:44:10;1.60;;;1.08;;
35245;SDS011;21379;50.962;6.960;2023-05-14T15:46:41;1.85;;;1.25;;
35245;SDS011;21379;50.962;6.960;2023-05-14T15:49:08;2.45;;;1.10;;
35245;SDS011;21379;50.962;6.960;2023-05-14T15:51:35;1.02;;;1.00;;
35245;SDS011;21379;50.962;6.960;2023-05-14T15:54:02;2.83;;;1.30;;
35245;SDS011;21379;50.962;6.960;2023-05-14T15:56:29;4.05;;;0.90;;
35245;SDS011;21379;50.962;6.960;2023-05-14T15:58:56;4.80;;;2.20;;
35245;SDS011;21379;50.962;6.960;2023-05-14T16:01:23;1.88;;;1.30;;
35245;SDS011;21379;50.962;6.960;2023-05-14T16:03:52;2.17;;;1.40;;
35245;SDS011;21379;50.962;6.960;2023-05-14T16:06:18;1.83;;;1.15;;
35245;SDS011;21379;50.962;6.960;2023-05-14T16:08:45;3.38;;;1.25;;
35245;SDS011;21379;50.962;6.960;2023-05-14T16:11:13;1.23;;;0.93;;
35245;SDS011;21379;50.962;6.960;2023-05-14T16:13:40;2.53;;;1.38;;
35245;SDS011;21379;50.962;6.960;2023-05-14T16:16:07;1.77;;;1.40;;
35245;SDS011;21379;50.962;6.960;2023-05-14T16:18:34;1.90;;;1.25;;
35245;SDS011;21379;50.962;6.960;2023-05-14T16:21:02;1.92;;;1.30;;
35245;SDS011;21379;50.962;6.960;2023-05-14T16:23:30;1.08;;;0.95;;
35245;SDS011;21379;50.962;6.960;2023-05-14T16:25:57;1.58;;;1.30;;
35245;SDS011;21379;50.962;6.960;2023-05-14T16:28:24;2.88;;;1.00;;
35245;SDS011;21379;50.962;6.960;2023-05-14T16:30:51;2.78;;;1.20;;
35245;SDS011;21379;50.962;6.960;2023-05-14T16:33:18;1.58;;;0.93;;
35245;SDS011;21379;50.962;6.960;2023-05-14T16:35:45;0.75;;;0.63;;
35245;SDS011;21379;50.962;6.960;2023-05-14T16:38:13;0.90;;;0.90;;
35245;SDS011;21379;50.962;6.960;2023-05-14T16:40:40;1.13;;;0.88;;
35245;SDS011;21379;50.962;6.960;2023-05-14T16:43:07;0.90;;;0.90;;
35245;SDS011;21379;50.962;6.960;2023-05-14T16:45:34;1.98;;;0.98;;
35245;SDS011;21379;50.962;6.960;2023-05-14T16:48:01;1.08;;;0.98;;
35245;SDS011;21379;50.962;6.960;2023-05-14T16:50:28;2.83;;;1.20;;
35245;SDS011;21379;50.962;6.960;2023-05-14T16:52:55;2.17;;;1.60;;
35245;SDS011;21379;50.962;6.960;2023-05-14T16:55:24;1.92;;;1.33;;
35245;SDS011;21379;50.962;6.960;2023-05-14T16:57:50;1.40;;;0.80;;
35245;SDS011;21379;50.962;6.960;2023-05-14T17:00:17;0.88;;;0.80;;
35245;SDS011;21379;50.962;6.960;2023-05-14T17:02:45;1.42;;;0.90;;
35245;SDS011;21379;50.962;6.960;2023-05-14T17:05:13;0.88;;;0.63;;
35245;SDS011;21379;50.962;6.960;2023-05-14T17:07:41;2.63;;;1.00;;
35245;SDS011;21379;50.962;6.960;2023-05-14T17:10:08;0.98;;;0.90;;
35245;SDS011;21379;50.962;6.960;2023-05-14T17:12:37;0.95;;;0.88;;
35245;SDS011;21379;50.962;6.960;2023-05-14T17:15:04;2.05;;;1.15;;
35245;SDS011;21379;50.962;6.960;2023-05-14T17:17:32;1.27;;;1.13;;
35245;SDS011;21379;50.962;6.960;2023-05-14T17:19:59;2.10;;;1.20;;
35245;SDS011;21379;50.962;6.960;2023-05-14T17:22:26;1.40;;;0.70;;
35245;SDS011;21379;50.962;6.960;2023-05-14T17:24:53;1.05;;;0.85;;
35245;SDS011;21379;50.962;6.960;2023-05-14T17:27:19;1.42;;;0.85;;
35245;SDS011;21379;50.962;6.960;2023-05-14T17:29:48;1.80;;;1.17;;
35245;SDS011;21379;50.962;6.960;2023-05-14T17:32:15;1.55;;;1.02;;
35245;SDS011;21379;50.962;6.960;2023-05-14T17:34:42;1.45;;;0.95;;
35245;SDS011;21379;50.962;6.960;2023-05-14T17:37:09;1.38;;;1.10;;
35245;SDS011;21379;50.962;6.960;2023-05-14T17:39:36;1.10;;;0.82;;
35245;SDS011;21379;50.962;6.960;2023-05-14T17:42:03;3.13;;;1.10;;
35245;SDS011;21379;50.962;6.960;2023-05-14T17:44:31;1.42;;;0.90;;
35245;SDS011;21379;50.962;6.960;2023-05-14T17:46:59;1.40;;;1.00;;
35245;SDS011;21379;50.962;6.960;2023-05-14T17:49:27;3.20;;;1.15;;
35245;SDS011;21379;50.962;6.960;2023-05-14T17:51:54;2.80;;;1.05;;
35245;SDS011;21379;50.962;6.960;2023-05-14T17:54:21;2.42;;;0.90;;
35245;SDS011;21379;50.962;6.960;2023-05-14T17:56:47;2.17;;;0.90;;
35245;SDS011;21379;50.962;6.960;2023-05-14T17:59:15;2.17;;;1.05;;
35245;SDS011;21379;50.962;6.960;2023-05-14T18:01:42;1.52;;;1.20;;
35245;SDS011;21379;50.962;6.960;2023-05-14T18:04:11;1.65;;;0.80;;
35245;SDS011;21379;50.962;6.960;2023-05-14T18:06:38;0.90;;;0.77;;
35245;SDS011;21379;50.962;6.960;2023-05-14T18:09:05;1.92;;;1.13;;
35245;SDS011;21379;50.962;6.960;2023-05-14T18:11:32;1.45;;;1.10;;
35245;SDS011;21379;50.962;6.960;2023-05-14T18:13:59;1.92;;;0.88;;
35245;SDS011;21379;50.962;6.960;2023-05-14T18:16:27;2.35;;;0.90;;
35245;SDS011;21379;50.962;6.960;2023-05-14T18:18:54;1.67;;;1.27;;
35245;SDS011;21379;50.962;6.960;2023-05-14T18:21:22;1.63;;;1.05;;
35245;SDS011;21379;50.962;6.960;2023-05-14T18:23:49;1.10;;;0.80;;
35245;SDS011;21379;50.962;6.960;2023-05-14T18:26:16;1.30;;;0.98;;
35245;SDS011;21379;50.962;6.960;2023-05-14T18:28:43;0.57;;;0.57;;
35245;SDS011;21379;50.962;6.960;2023-05-14T18:31:10;2.13;;;1.20;;
35245;SDS011;21379;50.962;6.960;2023-05-14T18:33:37;4.13;;;1.00;;
35245;SDS011;21379;50.962;6.960;2023-05-14T18:36:04;1.15;;;1.05;;
35245;SDS011;21379;50.962;6.960;2023-05-14T18:38:32;1.17;;;0.90;;
35245;SDS011;21379;50.962;6.960;2023-05-14T18:40:59;2.88;;;1.60;;
35245;SDS011;21379;50.962;6.960;2023-05-14T18:43:26;1.92;;;1.05;;
35245;SDS011;21379;50.962;6.960;2023-05-14T18:45:53;1.80;;;0.90;;
35245;SDS011;21379;50.962;6.960;2023-05-14T18:48:20;1.38;;;0.95;;
35245;SDS011;21379;50.962;6.960;2023-05-14T18:50:47;2.22;;;0.88;;
35245;SDS011;21379;50.962;6.960;2023-05-14T18:53:14;1.65;;;1.20;;
35245;SDS011;21379;50.962;6.960;2023-05-14T18:55:42;2.15;;;0.98;;
35245;SDS011;21379;50.962;6.960;2023-05-14T18:58:09;2.83;;;1.10;;
35245;SDS011;21379;50.962;6.960;2023-05-14T19:00:36;0.90;;;0.85;;
35245;SDS011;21379;50.962;6.960;2023-05-14T19:03:03;0.52;;;0.50;;
35245;SDS011;21379;50.962;6.960;2023-05-14T19:05:30;1.83;;;1.10;;
35245;SDS011;21379;50.962;6.960;2023-05-14T19:07:57;1.25;;;1.10;;
35245;SDS011;21379;50.962;6.960;2023-05-14T19:10:25;1.48;;;1.15;;
35245;SDS011;21379;50.962;6.960;2023-05-14T19:12:53;1.52;;;1.00;;
35245;SDS011;21379;50.962;6.960;2023-05-14T19:15:20;4.00;;;1.27;;
35245;SDS011;21379;50.962;6.960;2023-05-14T19:17:47;2.03;;;0.82;;
35245;SDS011;21379;50.962;6.960;2023-05-14T19:20:14;2.58;;;1.00;;
35245;SDS011;21379;50.962;6.960;2023-05-14T19:22:41;2.47;;;1.40;;
35245;SDS011;21379;50.962;6.960;2023-05-14T19:25:08;1.40;;;1.10;;
35245;SDS011;21379;50.962;6.960;2023-05-14T19:27:35;2.40;;;1.08;;
35245;SDS011;21379;50.962;6.960;2023-05-14T19:30:04;1.30;;;1.05;;
35245;SDS011;21379;50.962;6.960;2023-05-14T19:32:32;2.83;;;1.27;;
35245;SDS011;21379;50.962;6.960;2023-05-14T19:35:01;4.88;;;1.60;;
35245;SDS011;21379;50.962;6.960;2023-05-14T19:37:28;3.40;;;1.67;;
35245;SDS011;21379;50.962;6.960;2023-05-14T19:39:55;2.40;;;1.25;;
35245;SDS011;21379;50.962;6.960;2023-05-14T19:42:22;1.48;;;1.10;;
35245;SDS011;21379;50.962;6.960;2023-05-14T19:44:49;0.80;;;0.80;;
35245;SDS011;21379;50.962;6.960;2023-05-14T19:47:17;1.80;;;1.25;;
35245;SDS011;21379;50.962;6.960;2023-05-14T19:49:44;1.33;;;1.00;;
35245;SDS011;21379;50.962;6.960;2023-05-14T19:52:11;4.57;;;2.10;;
35245;SDS011;21379;50.962;6.960;2023-05-14T19:54:38;2.83;;;0.98;;